sensor_id;sensor_type;location;lat;lon;timestamp;pressure;altitude;pressure_sealevel;temperature;humidity
11339;BME280;5724;42.684;23.252;2023-05-23T00:01:29;94237.00;;;11.10;100.00
11339;BME280;5724;42.684;23.252;2023-05-23T00:03:56;94226.78;;;11.07;100.00
11339;BME280;5724;42.684;23.252;2023-05-23T00:06:22;94229.94;;;11.09;100.00
11339;BME280;5724;42.684;23.252;2023-05-23T00:08:48;94221.00;;;10.89;100.00
11339;BME280;5724;42.684;23.252;2023-05-23T00:11:13;94226.41;;;10.63;100.00
11339;BME280;5724;42.684;23.252;2023-05-23T00:13:40;94225.03;;;10.53;100.00
11339;BME280;5724;42.684;23.252;2023-05-23T00:16:06;94227.03;;;10.56;100.00
11339;BME280;5724;42.684;23.252;2023-05-23T00:18:35;94221.16;;;10.54;100.00
11339;BME280;5724;42.684;23.252;2023-05-23T00:21:01;94215.53;;;10.47;100.00
11339;BME280;5724;42.684;23.252;2023-05-23T00:23:26;94220.94;;;10.63;100.00
11339;BME280;5724;42.684;23.252;2023-05-23T00:25:54;94213.00;;;10.58;100.00
11339;BME280;5724;42.684;23.252;2023-05-23T00:28:20;94211.16;;;10.62;100.00
11339;BME280;5724;42.684;23.252;2023-05-23T00:30:47;94220.94;;;10.63;100.00
11339;BME280;5724;42.684;23.252;2023-05-23T00:33:16;94203.75;;;10.63;100.00
11339;BME280;5724;42.684;23.252;2023-05-23T00:35:42;94215.25;;;10.72;100.00
11339;BME280;5724;42.684;23.252;2023-05-23T00:38:08;94217.97;;;10.72;100.00
11339;BME280;5724;42.684;23.252;2023-05-23T00:40:35;94219.41;;;10.66;100.00
11339;BME280;5724;42.684;23.252;2023-05-23T00:43:01;94216.88;;;10.76;100.00
11339;BME280;5724;42.684;23.252;2023-05-23T00:45:27;94212.19;;;10.77;100.00
11339;BME280;5724;42.684;23.252;2023-05-23T00:47:52;94218.13;;;10.59;100.00
11339;BME280;5724;42.684;23.252;2023-05-23T00:50:18;94216.13;;;10.56;100.00
11339;BME280;5724;42.684;23.252;2023-05-23T00:52:47;94224.38;;;10.60;100.00
11339;BME280;5724;42.684;23.252;2023-05-23T00:55:13;94215.88;;;10.65;100.00
11339;BME280;5724;42.684;23.252;2023-05-23T00:57:39;94206.94;;;10.45;100.00
11339;BME280;5724;42.684;23.252;2023-05-23T01:00:10;94224.81;;;10.62;100.00
11339;BME280;5724;42.684;23.252;2023-05-23T01:02:45;94230.41;;;10.69;100.00
11339;BME280;5724;42.684;23.252;2023-05-23T01:05:15;94222.28;;;10.73;100.00
11339;BME280;5724;42.684;23.252;2023-05-23T01:07:47;94228.81;;;10.68;100.00
11339;BME280;5724;42.684;23.252;2023-05-23T01:10:14;94226.16;;;10.72;100.00
11339;BME280;5724;42.684;23.252;2023-05-23T01:18:23;94221.69;;;10.83;100.00
11339;BME280;5724;42.684;23.252;2023-05-23T01:21:17;94226.38;;;10.82;100.00
11339;BME280;5724;42.684;23.252;2023-05-23T01:29:14;94229.25;;;10.51;100.00
11339;BME280;5724;42.684;23.252;2023-05-23T01:31:45;94228.00;;;10.45;100.00
11339;BME280;5724;42.684;23.252;2023-05-23T01:34:14;94216.19;;;10.41;100.00
11339;BME280;5724;42.684;23.252;2023-05-23T01:36:42;94218.44;;;10.35;100.00
11339;BME280;5724;42.684;23.252;2023-05-23T01:39:08;94211.47;;;10.38;100.00
11339;BME280;5724;42.684;23.252;2023-05-23T01:41:34;94211.25;;;10.46;100.00
11339;BME280;5724;42.684;23.252;2023-05-23T01:44:00;94203.03;;;10.46;100.00
11339;BME280;5724;42.684;23.252;2023-05-23T01:46:27;94214.19;;;10.38;100.00
11339;BME280;5724;42.684;23.252;2023-05-23T01:48:54;94214.78;;;10.27;100.00
11339;BME280;5724;42.684;23.252;2023-05-23T01:51:21;94209.66;;;10.26;100.00
11339;BME280;5724;42.684;23.252;2023-05-23T01:53:48;94211.63;;;10.10;100.00
11339;BME280;5724;42.684;23.252;2023-05-23T01:56:14;94190.75;;;9.98;100.00
11339;BME280;5724;42.684;23.252;2023-05-23T01:58:40;94194.09;;;9.91;100.00
11339;BME280;5724;42.684;23.252;2023-05-23T02:01:06;94204.22;;;9.91;100.00
11339;BME280;5724;42.684;23.252;2023-05-23T02:03:31;94197.56;;;9.88;100.00
11339;BME280;5724;42.684;23.252;2023-05-23T02:05:57;94207.47;;;9.96;100.00
11339;BME280;5724;42.684;23.252;2023-05-23T02:08:23;94204.75;;;9.96;100.00
11339;BME280;5724;42.684;23.252;2023-05-23T02:10:48;94189.06;;;9.93;100.00
11339;BME280;5724;42.684;23.252;2023-05-23T02:13:14;94204.97;;;10.07;100.00
11339;BME280;5724;42.684;23.252;2023-05-23T02:15:39;94211.59;;;10.06;100.00
11339;BME280;5724;42.684;23.252;2023-05-23T02:18:05;94213.53;;;10.06;100.00
11339;BME280;5724;42.684;23.252;2023-05-23T02:20:30;94211.72;;;10.13;100.00
11339;BME280;5724;42.684;23.252;2023-05-23T02:22:56;94204.53;;;10.05;100.00
11339;BME280;5724;42.684;23.252;2023-05-23T02:25:21;94202.59;;;10.06;100.00
11339;BME280;5724;42.684;23.252;2023-05-23T02:27:47;94205.25;;;10.02;100.00
11339;BME280;5724;42.684;23.252;2023-05-23T02:30:12;94207.97;;;10.02;100.00
11339;BME280;5724;42.684;23.252;2023-05-23T02:32:38;94202.81;;;9.97;100.00
11339;BME280;5724;42.684;23.252;2023-05-23T02:35:04;94198.78;;;9.91;100.00
11339;BME280;5724;42.684;23.252;2023-05-23T02:37:30;94191.56;;;9.83;100.00
11339;BME280;5724;42.684;23.252;2023-05-23T02:39:55;94196.41;;;9.89;100.00
11339;BME280;5724;42.684;23.252;2023-05-23T02:42:21;94195.63;;;9.89;100.00
11339;BME280;5724;42.684;23.252;2023-05-23T02:44:46;94196.66;;;9.84;100.00
11339;BME280;5724;42.684;23.252;2023-05-23T02:47:12;94192.31;;;9.80;100.00
11339;BME280;5724;42.684;23.252;2023-05-23T02:49:37;94193.88;;;9.81;100.00
11339;BME280;5724;42.684;23.252;2023-05-23T02:52:03;94186.69;;;9.72;100.00
11339;BME280;5724;42.684;23.252;2023-05-23T02:54:29;94194.97;;;9.76;100.00
11339;BME280;5724;42.684;23.252;2023-05-23T02:56:55;94196.44;;;9.73;100.00
11339;BME280;5724;42.684;23.252;2023-05-23T02:59:20;94199.53;;;9.72;100.00
11339;BME280;5724;42.684;23.252;2023-05-23T03:01:47;94195.75;;;9.77;100.00
11339;BME280;5724;42.684;23.252;2023-05-23T03:04:13;94203.28;;;9.83;100.00
11339;BME280;5724;42.684;23.252;2023-05-23T03:06:38;94203.44;;;9.90;100.00
11339;BME280;5724;42.684;23.252;2023-05-23T03:09:07;94206.22;;;9.94;100.00
11339;BME280;5724;42.684;23.252;2023-05-23T03:11:33;94201.28;;;9.80;100.00
11339;BME280;5724;42.684;23.252;2023-05-23T03:13:58;94196.19;;;9.79;100.00
11339;BME280;5724;42.684;23.252;2023-05-23T03:16:25;94194.22;;;9.60;100.00
11339;BME280;5724;42.684;23.252;2023-05-23T03:18:50;94204.03;;;9.64;100.00
11339;BME280;5724;42.684;23.252;2023-05-23T03:21:16;94208.22;;;9.58;100.00
11339;BME280;5724;42.684;23.252;2023-05-23T03:23:42;94195.25;;;9.55;100.00
11339;BME280;5724;42.684;23.252;2023-05-23T03:26:07;94208.28;;;9.62;100.00
11339;BME280;5724;42.684;23.252;2023-05-23T03:28:33;94212.22;;;9.64;100.00
11339;BME280;5724;42.684;23.252;2023-05-23T03:30:58;94212.13;;;9.77;100.00
11339;BME280;5724;42.684;23.252;2023-05-23T03:33:23;94208.31;;;9.81;100.00
11339;BME280;5724;42.684;23.252;2023-05-23T03:35:49;94200.56;;;9.83;100.00
11339;BME280;5724;42.684;23.252;2023-05-23T03:38:15;94214.00;;;9.92;100.00
11339;BME280;5724;42.684;23.252;2023-05-23T03:40:41;94216.28;;;9.90;100.00
11339;BME280;5724;42.684;23.252;2023-05-23T03:43:07;94230.78;;;9.94;100.00
11339;BME280;5724;42.684;23.252;2023-05-23T03:45:33;94205.16;;;9.79;100.00
11339;BME280;5724;42.684;23.252;2023-05-23T03:47:58;94225.06;;;9.99;100.00
11339;BME280;5724;42.684;23.252;2023-05-23T03:50:24;94229.44;;;10.03;100.00
11339;BME280;5724;42.684;23.252;2023-05-23T03:52:50;94223.56;;;10.01;100.00
11339;BME280;5724;42.684;23.252;2023-05-23T03:55:16;94230.16;;;10.00;100.00
11339;BME280;5724;42.684;23.252;2023-05-23T03:57:46;94230.47;;;10.15;100.00
11339;BME280;5724;42.684;23.252;2023-05-23T04:00:11;94234.84;;;10.19;100.00
11339;BME280;5724;42.684;23.252;2023-05-23T04:02:37;94242.06;;;10.27;100.00
11339;BME280;5724;42.684;23.252;2023-05-23T04:05:06;94230.84;;;10.32;100.00
11339;BME280;5724;42.684;23.252;2023-05-23T04:07:34;94223.97;;;10.39;100.00
11339;BME280;5724;42.684;23.252;2023-05-23T04:10:01;94226.84;;;10.46;100.00
11339;BME280;5724;42.684;23.252;2023-05-23T04:12:27;94226.31;;;10.40;100.00
11339;BME280;5724;42.684;23.252;2023-05-23T04:14:55;94231.78;;;10.40;100.00
11339;BME280;5724;42.684;23.252;2023-05-23T04:17:20;94240.19;;;10.31;100.00
11339;BME280;5724;42.684;23.252;2023-05-23T04:19:47;94232.50;;;10.37;100.00
11339;BME280;5724;42.684;23.252;2023-05-23T04:22:12;94218.13;;;10.40;100.00
11339;BME280;5724;42.684;23.252;2023-05-23T04:24:38;94236.03;;;10.38;100.00
11339;BME280;5724;42.684;23.252;2023-05-23T04:27:03;94221.44;;;10.30;100.00
11339;BME280;5724;42.684;23.252;2023-05-23T04:29:29;94220.94;;;10.44;100.00
11339;BME280;5724;42.684;23.252;2023-05-23T04:31:56;94215.75;;;10.39;100.00
11339;BME280;5724;42.684;23.252;2023-05-23T04:34:22;94227.25;;;10.48;100.00
11339;BME280;5724;42.684;23.252;2023-05-23T04:36:48;94232.00;;;10.51;100.00
11339;BME280;5724;42.684;23.252;2023-05-23T04:39:14;94223.53;;;10.37;100.00
11339;BME280;5724;42.684;23.252;2023-05-23T04:41:40;94228.78;;;10.45;100.00
11339;BME280;5724;42.684;23.252;2023-05-23T04:44:06;94238.97;;;10.29;100.00
11339;BME280;5724;42.684;23.252;2023-05-23T04:46:34;94228.59;;;9.99;100.00
11339;BME280;5724;42.684;23.252;2023-05-23T04:49:01;94234.81;;;9.81;100.00
11339;BME280;5724;42.684;23.252;2023-05-23T04:51:26;94225.72;;;9.41;100.00
11339;BME280;5724;42.684;23.252;2023-05-23T04:53:52;94238.81;;;9.52;100.00
11339;BME280;5724;42.684;23.252;2023-05-23T04:56:17;94240.88;;;9.39;100.00
11339;BME280;5724;42.684;23.252;2023-05-23T04:58:46;94244.91;;;9.45;100.00
11339;BME280;5724;42.684;23.252;2023-05-23T05:01:12;94249.97;;;9.62;100.00
11339;BME280;5724;42.684;23.252;2023-05-23T05:03:38;94253.03;;;9.77;100.00
11339;BME280;5724;42.684;23.252;2023-05-23T05:06:04;94259.75;;;9.98;100.00
11339;BME280;5724;42.684;23.252;2023-05-23T05:08:30;94248.34;;;10.12;100.00
11339;BME280;5724;42.684;23.252;2023-05-23T05:10:56;94256.53;;;10.12;100.00
11339;BME280;5724;42.684;23.252;2023-05-23T05:13:21;94246.53;;;10.00;100.00
11339;BME280;5724;42.684;23.252;2023-05-23T05:15:47;94261.47;;;10.22;100.00
11339;BME280;5724;42.684;23.252;2023-05-23T05:18:12;94259.03;;;10.37;100.00
11339;BME280;5724;42.684;23.252;2023-05-23T05:20:38;94261.00;;;10.20;100.00
11339;BME280;5724;42.684;23.252;2023-05-23T05:23:03;94261.97;;;10.28;100.00
11339;BME280;5724;42.684;23.252;2023-05-23T05:25:29;94257.63;;;10.43;100.00
11339;BME280;5724;42.684;23.252;2023-05-23T05:28:02;94255.56;;;10.59;100.00
11339;BME280;5724;42.684;23.252;2023-05-23T05:30:30;94254.50;;;10.64;100.00
11339;BME280;5724;42.684;23.252;2023-05-23T05:33:02;94253.19;;;10.77;100.00
11339;BME280;5724;42.684;23.252;2023-05-23T05:35:32;94259.63;;;10.88;100.00
11339;BME280;5724;42.684;23.252;2023-05-23T05:37:58;94253.09;;;10.93;100.00
11339;BME280;5724;42.684;23.252;2023-05-23T05:40:24;94258.34;;;11.01;100.00
11339;BME280;5724;42.684;23.252;2023-05-23T05:42:50;94266.00;;;11.15;100.00
11339;BME280;5724;42.684;23.252;2023-05-23T05:45:16;94266.97;;;11.03;100.00
11339;BME280;5724;42.684;23.252;2023-05-23T05:47:41;94262.09;;;10.93;100.00
11339;BME280;5724;42.684;23.252;2023-05-23T05:50:07;94267.75;;;11.04;100.00
11339;BME280;5724;42.684;23.252;2023-05-23T05:52:36;94269.88;;;11.14;100.00
11339;BME280;5724;42.684;23.252;2023-05-23T05:55:08;94269.56;;;11.19;100.00
11339;BME280;5724;42.684;23.252;2023-05-23T05:57:40;94271.50;;;11.18;100.00
11339;BME280;5724;42.684;23.252;2023-05-23T06:00:10;94265.09;;;11.30;100.00
11339;BME280;5724;42.684;23.252;2023-05-23T06:02:42;94268.19;;;11.52;100.00
11339;BME280;5724;42.684;23.252;2023-05-23T06:05:09;94269.81;;;11.56;100.00
11339;BME280;5724;42.684;23.252;2023-05-23T06:07:39;94275.34;;;11.83;100.00
11339;BME280;5724;42.684;23.252;2023-05-23T06:10:05;94273.78;;;12.12;100.00
11339;BME280;5724;42.684;23.252;2023-05-23T06:12:31;94271.97;;;12.19;100.00
11339;BME280;5724;42.684;23.252;2023-05-23T06:14:57;94270.44;;;12.25;100.00
11339;BME280;5724;42.684;23.252;2023-05-23T06:17:22;94270.94;;;12.31;100.00
11339;BME280;5724;42.684;23.252;2023-05-23T06:19:48;94267.22;;;12.46;100.00
11339;BME280;5724;42.684;23.252;2023-05-23T06:22:13;94275.63;;;12.60;100.00
11339;BME280;5724;42.684;23.252;2023-05-23T06:24:39;94274.53;;;12.69;100.00
11339;BME280;5724;42.684;23.252;2023-05-23T06:27:04;94279.69;;;12.74;100.00
11339;BME280;5724;42.684;23.252;2023-05-23T06:29:30;94268.06;;;12.50;100.00
11339;BME280;5724;42.684;23.252;2023-05-23T06:31:56;94278.22;;;12.50;100.00
11339;BME280;5724;42.684;23.252;2023-05-23T06:34:21;94271.38;;;12.67;100.00
11339;BME280;5724;42.684;23.252;2023-05-23T06:36:47;94271.91;;;12.79;100.00
11339;BME280;5724;42.684;23.252;2023-05-23T06:39:13;94278.13;;;13.10;100.00
11339;BME280;5724;42.684;23.252;2023-05-23T06:41:38;94280.47;;;13.45;100.00
11339;BME280;5724;42.684;23.252;2023-05-23T06:44:04;94277.13;;;13.66;100.00
11339;BME280;5724;42.684;23.252;2023-05-23T06:46:30;94273.66;;;13.76;100.00
11339;BME280;5724;42.684;23.252;2023-05-23T06:48:55;94267.38;;;13.75;100.00
11339;BME280;5724;42.684;23.252;2023-05-23T06:51:21;94266.28;;;13.84;100.00
11339;BME280;5724;42.684;23.252;2023-05-23T06:53:47;94270.41;;;14.11;100.00
11339;BME280;5724;42.684;23.252;2023-05-23T06:56:12;94264.06;;;14.00;100.00
11339;BME280;5724;42.684;23.252;2023-05-23T06:58:38;94262.91;;;14.08;100.00
11339;BME280;5724;42.684;23.252;2023-05-23T07:01:03;94264.91;;;14.15;100.00
11339;BME280;5724;42.684;23.252;2023-05-23T07:03:29;94255.53;;;14.19;100.00
11339;BME280;5724;42.684;23.252;2023-05-23T07:05:55;94269.88;;;14.57;100.00
11339;BME280;5724;42.684;23.252;2023-05-23T07:08:20;94266.47;;;14.81;100.00
11339;BME280;5724;42.684;23.252;2023-05-23T07:10:46;94261.75;;;14.82;100.00
11339;BME280;5724;42.684;23.252;2023-05-23T07:13:11;94259.66;;;14.54;100.00
11339;BME280;5724;42.684;23.252;2023-05-23T07:15:37;94246.41;;;14.81;100.00
11339;BME280;5724;42.684;23.252;2023-05-23T07:18:02;94251.72;;;14.42;99.33
11339;BME280;5724;42.684;23.252;2023-05-23T07:20:28;94235.31;;;14.49;98.76
11339;BME280;5724;42.684;23.252;2023-05-23T07:22:54;94232.31;;;14.89;99.17
11339;BME280;5724;42.684;23.252;2023-05-23T07:25:19;94238.25;;;15.16;100.00
11339;BME280;5724;42.684;23.252;2023-05-23T07:27:47;94237.47;;;15.23;98.97
11339;BME280;5724;42.684;23.252;2023-05-23T07:30:13;94246.13;;;15.29;97.68
11339;BME280;5724;42.684;23.252;2023-05-23T07:32:38;94241.84;;;15.38;95.74
11339;BME280;5724;42.684;23.252;2023-05-23T07:35:04;94235.56;;;15.56;92.09
11339;BME280;5724;42.684;23.252;2023-05-23T07:37:29;94235.91;;;15.33;92.04
11339;BME280;5724;42.684;23.252;2023-05-23T07:39:55;94241.84;;;15.60;92.25
11339;BME280;5724;42.684;23.252;2023-05-23T07:42:20;94239.50;;;15.76;93.30
11339;BME280;5724;42.684;23.252;2023-05-23T07:44:46;94234.41;;;15.92;90.95
11339;BME280;5724;42.684;23.252;2023-05-23T07:47:11;94234.75;;;16.16;90.56
11339;BME280;5724;42.684;23.252;2023-05-23T07:49:36;94232.38;;;16.18;90.79
11339;BME280;5724;42.684;23.252;2023-05-23T07:52:02;94232.38;;;16.18;91.25
11339;BME280;5724;42.684;23.252;2023-05-23T07:54:28;94236.63;;;16.54;89.82
11339;BME280;5724;42.684;23.252;2023-05-23T07:56:53;94237.72;;;16.68;89.77
11339;BME280;5724;42.684;23.252;2023-05-23T07:59:19;94231.78;;;16.87;89.76
11339;BME280;5724;42.684;23.252;2023-05-23T08:01:44;94231.63;;;17.15;89.08
11339;BME280;5724;42.684;23.252;2023-05-23T08:04:10;94221.38;;;17.20;86.32
11339;BME280;5724;42.684;23.252;2023-05-23T08:06:35;94228.69;;;17.44;85.07
11339;BME280;5724;42.684;23.252;2023-05-23T08:09:02;94231.44;;;17.48;84.87
11339;BME280;5724;42.684;23.252;2023-05-23T08:11:29;94230.31;;;17.34;86.29
11339;BME280;5724;42.684;23.252;2023-05-23T08:13:55;94216.78;;;17.54;84.58
11339;BME280;5724;42.684;23.252;2023-05-23T08:16:20;94227.34;;;17.63;84.77
11339;BME280;5724;42.684;23.252;2023-05-23T08:18:47;94227.72;;;17.68;82.92
11339;BME280;5724;42.684;23.252;2023-05-23T08:21:12;94230.38;;;17.83;84.00
11339;BME280;5724;42.684;23.252;2023-05-23T08:23:38;94230.34;;;17.90;83.03
11339;BME280;5724;42.684;23.252;2023-05-23T08:26:03;94237.31;;;18.05;81.79
11339;BME280;5724;42.684;23.252;2023-05-23T08:28:28;94228.19;;;18.08;82.43
11339;BME280;5724;42.684;23.252;2023-05-23T08:30:54;94224.09;;;18.23;82.94
11339;BME280;5724;42.684;23.252;2023-05-23T08:33:21;94235.25;;;18.13;80.42
11339;BME280;5724;42.684;23.252;2023-05-23T08:35:46;94230.38;;;18.27;81.56
11339;BME280;5724;42.684;23.252;2023-05-23T08:38:12;94217.56;;;18.44;82.84
11339;BME280;5724;42.684;23.252;2023-05-23T08:40:38;94221.69;;;18.67;82.59
11339;BME280;5724;42.684;23.252;2023-05-23T08:43:05;94221.63;;;18.70;81.66
11339;BME280;5724;42.684;23.252;2023-05-23T08:45:31;94221.13;;;18.79;78.75
11339;BME280;5724;42.684;23.252;2023-05-23T08:47:59;94209.13;;;18.93;77.10
11339;BME280;5724;42.684;23.252;2023-05-23T08:50:29;94199.47;;;19.04;76.00
11339;BME280;5724;42.684;23.252;2023-05-23T08:52:56;94208.06;;;19.10;74.71
11339;BME280;5724;42.684;23.252;2023-05-23T08:55:23;94210.56;;;18.70;75.18
11339;BME280;5724;42.684;23.252;2023-05-23T08:58:01;94219.50;;;18.85;76.54
11339;BME280;5724;42.684;23.252;2023-05-23T09:00:27;94209.75;;;19.04;76.10
11339;BME280;5724;42.684;23.252;2023-05-23T09:02:53;94218.56;;;18.95;73.72
11339;BME280;5724;42.684;23.252;2023-05-23T09:05:19;94213.88;;;19.19;71.24
11339;BME280;5724;42.684;23.252;2023-05-23T09:07:46;94208.25;;;19.26;69.85
11339;BME280;5724;42.684;23.252;2023-05-23T09:10:16;94205.84;;;19.55;71.58
11339;BME280;5724;42.684;23.252;2023-05-23T09:12:44;94201.84;;;19.60;67.59
11339;BME280;5724;42.684;23.252;2023-05-23T09:15:10;94204.22;;;19.58;64.87
11339;BME280;5724;42.684;23.252;2023-05-23T09:17:36;94206.13;;;19.64;65.60
11339;BME280;5724;42.684;23.252;2023-05-23T09:20:15;94205.66;;;19.93;62.62
11339;BME280;5724;42.684;23.252;2023-05-23T09:22:45;94193.44;;;19.90;59.29
11339;BME280;5724;42.684;23.252;2023-05-23T09:25:12;94183.22;;;19.84;59.39
11339;BME280;5724;42.684;23.252;2023-05-23T09:27:37;94185.16;;;19.63;60.86
11339;BME280;5724;42.684;23.252;2023-05-23T09:30:07;94184.84;;;19.58;59.38
11339;BME280;5724;42.684;23.252;2023-05-23T09:32:33;94192.19;;;19.68;58.26
11339;BME280;5724;42.684;23.252;2023-05-23T09:35:00;94187.28;;;19.79;61.76
11339;BME280;5724;42.684;23.252;2023-05-23T09:37:34;94191.13;;;20.09;59.61
11339;BME280;5724;42.684;23.252;2023-05-23T09:40:04;94182.47;;;20.26;59.56
11339;BME280;5724;42.684;23.252;2023-05-23T09:42:32;94178.47;;;20.08;57.08
11339;BME280;5724;42.684;23.252;2023-05-23T09:45:00;94179.81;;;20.43;59.00
11339;BME280;5724;42.684;23.252;2023-05-23T09:47:26;94182.81;;;20.72;59.16
11339;BME280;5724;42.684;23.252;2023-05-23T09:49:52;94176.81;;;20.93;57.73
11339;BME280;5724;42.684;23.252;2023-05-23T09:52:17;94162.31;;;20.46;58.20
11339;BME280;5724;42.684;23.252;2023-05-23T09:54:46;94170.78;;;20.58;54.21
11339;BME280;5724;42.684;23.252;2023-05-23T09:57:14;94159.56;;;20.42;53.01
11339;BME280;5724;42.684;23.252;2023-05-23T09:59:41;94158.34;;;20.47;53.91
11339;BME280;5724;42.684;23.252;2023-05-23T10:02:15;94166.00;;;20.39;52.96
11339;BME280;5724;42.684;23.252;2023-05-23T10:04:41;94159.91;;;20.48;49.87
11339;BME280;5724;42.684;23.252;2023-05-23T10:07:12;94165.25;;;20.35;54.75
11339;BME280;5724;42.684;23.252;2023-05-23T10:09:46;94160.81;;;20.61;54.65
11339;BME280;5724;42.684;23.252;2023-05-23T10:14:57;94167.47;;;21.03;52.99
11339;BME280;5724;42.684;23.252;2023-05-23T10:17:36;94155.94;;;21.05;53.38
11339;BME280;5724;42.684;23.252;2023-05-23T10:20:09;94156.75;;;21.22;50.73
11339;BME280;5724;42.684;23.252;2023-05-23T10:22:35;94149.16;;;21.06;49.11
11339;BME280;5724;42.684;23.252;2023-05-23T10:25:04;94155.91;;;21.25;48.10
11339;BME280;5724;42.684;23.252;2023-05-23T10:27:31;94152.13;;;21.35;47.45
11339;BME280;5724;42.684;23.252;2023-05-23T10:29:58;94157.84;;;21.60;46.70
11339;BME280;5724;42.684;23.252;2023-05-23T10:32:24;94147.44;;;21.48;48.97
11339;BME280;5724;42.684;23.252;2023-05-23T10:35:14;94146.38;;;21.42;48.12
11339;BME280;5724;42.684;23.252;2023-05-23T10:45:58;94144.81;;;21.57;44.66
11339;BME280;5724;42.684;23.252;2023-05-23T10:48:34;94139.63;;;21.43;44.30
11339;BME280;5724;42.684;23.252;2023-05-23T10:51:05;94121.59;;;21.15;45.27
11339;BME280;5724;42.684;23.252;2023-05-23T10:53:35;94130.50;;;21.23;46.61
11339;BME280;5724;42.684;23.252;2023-05-23T10:56:04;94138.66;;;21.50;46.11
11339;BME280;5724;42.684;23.252;2023-05-23T10:58:30;94136.84;;;21.43;46.68
11339;BME280;5724;42.684;23.252;2023-05-23T11:01:00;94128.81;;;21.61;44.73
11339;BME280;5724;42.684;23.252;2023-05-23T11:05:59;94123.97;;;21.82;48.59
11339;BME280;5724;42.684;23.252;2023-05-23T11:08:26;94123.09;;;21.85;45.03
11339;BME280;5724;42.684;23.252;2023-05-23T11:13:18;94126.03;;;21.78;43.64
11339;BME280;5724;42.684;23.252;2023-05-23T11:15:44;94118.47;;;21.78;44.81
11339;BME280;5724;42.684;23.252;2023-05-23T11:18:18;94116.56;;;22.08;43.84
11339;BME280;5724;42.684;23.252;2023-05-23T11:20:45;94112.47;;;22.12;43.00
11339;BME280;5724;42.684;23.252;2023-05-23T11:23:12;94111.53;;;22.32;45.37
11339;BME280;5724;42.684;23.252;2023-05-23T11:25:40;94110.97;;;22.24;45.22
11339;BME280;5724;42.684;23.252;2023-05-23T11:28:07;94113.09;;;22.33;45.80
11339;BME280;5724;42.684;23.252;2023-05-23T11:30:34;94112.97;;;22.23;45.54
11339;BME280;5724;42.684;23.252;2023-05-23T11:33:08;94110.41;;;22.29;44.53
11339;BME280;5724;42.684;23.252;2023-05-23T11:35:36;94104.28;;;22.21;43.93
11339;BME280;5724;42.684;23.252;2023-05-23T11:38:03;94100.94;;;22.26;43.64
11339;BME280;5724;42.684;23.252;2023-05-23T11:40:36;94105.69;;;21.97;43.48
11339;BME280;5724;42.684;23.252;2023-05-23T11:43:13;94106.28;;;22.21;41.83
11339;BME280;5724;42.684;23.252;2023-05-23T11:45:40;94092.16;;;22.28;42.91
11339;BME280;5724;42.684;23.252;2023-05-23T11:48:10;94090.69;;;22.23;44.37
11339;BME280;5724;42.684;23.252;2023-05-23T11:50:44;94101.41;;;22.38;43.15
11339;BME280;5724;42.684;23.252;2023-05-23T11:53:10;94092.16;;;22.28;44.48
11339;BME280;5724;42.684;23.252;2023-05-23T11:55:38;94088.97;;;22.42;43.36
11339;BME280;5724;42.684;23.252;2023-05-23T11:58:04;94083.09;;;22.11;42.63
11339;BME280;5724;42.684;23.252;2023-05-23T12:00:30;94083.44;;;22.55;42.02
11339;BME280;5724;42.684;23.252;2023-05-23T12:02:55;94092.94;;;22.83;42.54
11339;BME280;5724;42.684;23.252;2023-05-23T12:05:21;94087.75;;;22.85;43.46
11339;BME280;5724;42.684;23.252;2023-05-23T12:07:47;94077.16;;;22.93;41.92
11339;BME280;5724;42.684;23.252;2023-05-23T12:10:14;94080.31;;;23.07;43.44
11339;BME280;5724;42.684;23.252;2023-05-23T12:12:45;94083.63;;;23.15;42.51
11339;BME280;5724;42.684;23.252;2023-05-23T12:15:11;94078.50;;;23.39;40.83
11339;BME280;5724;42.684;23.252;2023-05-23T12:17:39;94073.03;;;23.61;40.30
11339;BME280;5724;42.684;23.252;2023-05-23T12:20:10;94057.22;;;23.32;40.51
11339;BME280;5724;42.684;23.252;2023-05-23T12:22:35;94062.91;;;23.16;41.81
11339;BME280;5724;42.684;23.252;2023-05-23T12:25:01;94065.59;;;23.07;41.82
11339;BME280;5724;42.684;23.252;2023-05-23T12:27:32;94056.69;;;22.99;42.86
11339;BME280;5724;42.684;23.252;2023-05-23T12:30:09;94049.53;;;22.98;42.16
11339;BME280;5724;42.684;23.252;2023-05-23T12:32:39;94050.44;;;23.08;41.16
11339;BME280;5724;42.684;23.252;2023-05-23T12:35:10;94055.91;;;22.99;40.55
11339;BME280;5724;42.684;23.252;2023-05-23T12:37:41;94040.72;;;23.00;42.25
11339;BME280;5724;42.684;23.252;2023-05-23T12:40:17;94050.31;;;23.11;39.58
11339;BME280;5724;42.684;23.252;2023-05-23T12:42:53;94045.50;;;23.25;39.58
11339;BME280;5724;42.684;23.252;2023-05-23T12:45:33;94039.34;;;23.42;38.91
11339;BME280;5724;42.684;23.252;2023-05-23T12:48:03;94038.91;;;23.44;38.44
11339;BME280;5724;42.684;23.252;2023-05-23T12:50:29;94029.09;;;23.39;39.35
11339;BME280;5724;42.684;23.252;2023-05-23T12:52:55;94037.09;;;23.50;40.06
11339;BME280;5724;42.684;23.252;2023-05-23T12:55:21;94030.53;;;23.57;42.02
11339;BME280;5724;42.684;23.252;2023-05-23T12:57:46;94019.03;;;23.55;41.45
11339;BME280;5724;42.684;23.252;2023-05-23T13:00:12;94028.81;;;23.72;40.70
11339;BME280;5724;42.684;23.252;2023-05-23T13:02:38;94017.72;;;23.34;39.51
11339;BME280;5724;42.684;23.252;2023-05-23T13:05:04;94026.13;;;23.21;38.58
11339;BME280;5724;42.684;23.252;2023-05-23T13:07:30;94027.78;;;23.06;38.23
11339;BME280;5724;42.684;23.252;2023-05-23T13:09:56;94022.63;;;22.53;37.52
11339;BME280;5724;42.684;23.252;2023-05-23T13:12:22;94029.25;;;23.10;38.67
11339;BME280;5724;42.684;23.252;2023-05-23T13:14:48;94019.22;;;23.13;37.82
11339;BME280;5724;42.684;23.252;2023-05-23T13:17:14;94012.81;;;23.38;38.57
11339;BME280;5724;42.684;23.252;2023-05-23T13:19:39;94021.28;;;23.60;37.13
11339;BME280;5724;42.684;23.252;2023-05-23T13:22:05;94023.28;;;23.47;37.07